Time;durP1;ratioP1;P1;durP2;ratioP2;P2;SDS_P1;SDS_P2;PMS_P1;PMS_P2;Temp;Humidity;BMP_temperature;BMP_pressure;BME280_temperature;BME280_humidity;BME280_pressure;Samples;Min_cycle;Max_cycle;Signal;HPM_P1;HPM_P2
2022/04/09 00:02:09;;;;;;;;;11.75;11.25;;;;;4.99;85.70;100827.66;5078710;28;48176;-70
2022/04/09 00:04:34;;;;;;;;;11.50;10.00;;;;;4.84;85.38;100830.59;5075661;28;45401;-69
2022/04/09 00:07:00;;;;;;;;;14.50;14.50;;;;;4.92;85.27;100841.66;5068380;28;45418;-70
2022/04/09 00:09:25;;;;;;;;;10.50;10.50;;;;;4.93;85.18;100833.50;5064499;28;45327;-69
2022/04/09 00:11:51;;;;;;;;;14.00;12.00;;;;;5.06;85.34;100833.44;5068159;28;45955;-70
2022/04/09 00:14:16;;;;;;;;;15.50;14.75;;;;;5.12;85.10;100833.00;5074306;28;45345;-69
2022/04/09 00:16:42;;;;;;;;;11.75;9.00;;;;;5.21;85.11;100843.13;5067947;28;45390;-69
2022/04/09 00:19:07;;;;;;;;;9.50;9.50;;;;;5.17;84.79;100838.94;5085262;27;45448;-69
2022/04/09 00:21:34;;;;;;;;;6.33;2.67;;;;;5.16;84.58;100845.28;5067830;28;46697;-69
2022/04/09 00:24:00;;;;;;;;;12.75;11.25;;;;;5.17;84.27;100851.53;5069900;28;45287;-69
2022/04/09 00:26:25;;;;;;;;;14.75;14.00;;;;;5.14;84.59;100852.59;5067107;28;45242;-69
2022/04/09 00:28:51;;;;;;;;;10.67;8.00;;;;;5.07;84.18;100856.72;5086966;27;45404;-69
2022/04/09 00:31:16;;;;;;;;;10.25;10.25;;;;;5.07;84.47;100852.19;5076474;28;46338;-69
2022/04/09 00:33:41;;;;;;;;;11.25;7.50;;;;;5.13;84.42;100867.03;5066594;28;45174;-69
2022/04/09 00:36:07;;;;;;;;;6.00;6.00;;;;;5.11;84.45;100858.25;5065537;28;45388;-69
2022/04/09 00:38:32;;;;;;;;;8.67;8.67;;;;;5.15;84.71;100859.72;5082101;28;45420;-69
2022/04/09 00:40:58;;;;;;;;;9.33;8.67;;;;;5.18;84.58;100862.22;5066969;28;46992;-69
2022/04/09 00:43:24;;;;;;;;;10.67;10.00;;;;;5.21;84.19;100874.56;5068376;28;45758;-69
2022/04/09 00:45:50;;;;;;;;;7.67;7.67;;;;;5.18;83.74;100867.59;5065144;28;45305;-69
2022/04/09 00:48:20;;;;;;;;;7.67;6.33;;;;;5.21;83.57;100877.25;5077916;28;45333;-69
2022/04/09 00:50:47;;;;;;;;;7.00;6.33;;;;;5.23;84.09;100878.88;5083770;28;47258;-70
2022/04/09 00:53:15;;;;;;;;;9.75;7.50;;;;;5.18;83.13;100881.06;5072527;28;45494;-70
2022/04/09 00:58:28;;;;;;;;;10.75;10.00;;;;;5.20;83.94;100879.09;5075215;28;45491;-69
2022/04/09 01:00:53;;;;;;;;;6.33;6.33;;;;;5.23;83.94;100880.72;5064649;28;45314;-70
2022/04/09 01:03:20;;;;;;;;;9.33;9.33;;;;;5.29;83.93;100867.66;5066990;28;45206;-70
2022/04/09 01:05:48;;;;;;;;;6.00;6.00;;;;;5.39;83.44;100884.03;5073708;27;45445;-69
2022/04/09 01:08:14;;;;;;;;;7.33;6.67;;;;;5.46;83.57;100883.47;5074207;28;45416;-71
2022/04/09 01:10:39;;;;;;;;;7.33;6.00;;;;;5.48;83.52;100891.41;5064398;28;45398;-70
2022/04/09 01:13:05;;;;;;;;;5.00;2.33;;;;;5.51;83.23;100882.25;5072334;28;45324;-70
2022/04/09 01:15:31;;;;;;;;;6.00;6.00;;;;;5.53;82.77;100878.47;5064766;28;45392;-70
2022/04/09 01:17:56;;;;;;;;;7.67;6.00;;;;;5.58;82.79;100884.38;5071763;28;45665;-70
2022/04/09 01:20:26;;;;;;;;;7.00;5.00;;;;;5.63;82.58;100890.28;5064325;28;46471;-70
2022/04/09 01:22:51;;;;;;;;;5.00;5.00;;;;;5.55;82.33;100898.09;5073761;28;45259;-70
2022/04/09 01:25:17;;;;;;;;;7.00;6.00;;;;;5.36;82.38;100901.25;5066278;28;45459;-69
2022/04/09 01:27:42;;;;;;;;;8.00;6.00;;;;;5.15;82.89;100910.91;5081982;27;45508;-70
2022/04/09 01:30:08;;;;;;;;;7.00;6.00;;;;;5.25;83.15;100921.88;5087564;27;45402;-70
2022/04/09 01:32:34;;;;;;;;;5.00;5.00;;;;;5.33;83.11;100928.41;5082282;28;45892;-70
2022/04/09 01:35:01;;;;;;;;;7.33;6.00;;;;;5.29;82.20;100940.41;5073784;27;45413;-70
2022/04/09 01:37:26;;;;;;;;;10.00;7.00;;;;;5.31;82.65;100948.38;5069173;28;45401;-70
2022/04/09 01:39:51;;;;;;;;;5.00;5.00;;;;;5.29;82.81;100948.47;5074753;28;47350;-70
2022/04/09 01:42:18;;;;;;;;;9.67;7.00;;;;;5.24;82.46;100945.25;5067270;28;45627;-70
2022/04/09 01:44:44;;;;;;;;;3.00;3.00;;;;;5.22;82.61;100957.09;5073126;28;45279;-70
2022/04/09 01:47:10;;;;;;;;;5.00;5.00;;;;;5.08;82.37;100944.63;5070222;28;45408;-70
2022/04/09 01:49:35;;;;;;;;;4.33;3.67;;;;;5.06;82.62;100936.66;5071727;27;46072;-71
2022/04/09 01:52:00;;;;;;;;;7.00;5.00;;;;;5.23;82.82;100950.75;5069853;28;45247;-70
2022/04/09 01:54:26;;;;;;;;;7.00;6.00;;;;;5.24;82.66;100931.78;5064083;28;45295;-69
2022/04/09 01:56:51;;;;;;;;;2.00;2.00;;;;;5.21;82.43;100948.16;5066606;28;45487;-70
2022/04/09 01:59:16;;;;;;;;;5.00;5.00;;;;;5.21;82.34;100945.47;5070904;28;48026;-70
2022/04/09 02:01:42;;;;;;;;;6.00;4.00;;;;;5.25;82.45;100944.28;5067143;28;45409;-70
2022/04/09 02:04:07;;;;;;;;;6.00;5.00;;;;;5.12;82.93;100954.19;5063822;28;45316;-70
2022/04/09 02:06:33;;;;;;;;;8.67;6.00;;;;;5.13;83.58;100955.06;5068542;27;45598;-70
2022/04/09 02:08:58;;;;;;;;;7.00;4.33;;;;;5.13;84.35;100958.63;5072289;28;48174;-70
2022/04/09 02:11:24;;;;;;;;;4.33;4.33;;;;;5.22;84.17;100965.19;5078514;28;45443;-70
2022/04/09 02:13:52;;;;;;;;;8.00;6.00;;;;;5.26;84.48;100955.94;5073376;28;45235;-69
2022/04/09 02:16:18;;;;;;;;;7.67;6.67;;;;;5.28;84.33;100952.13;5064690;28;45723;-70
2022/04/09 02:18:43;;;;;;;;;4.00;3.00;;;;;5.31;84.21;100946.53;5076885;28;48084;-70
2022/04/09 02:21:12;;;;;;;;;7.00;5.67;;;;;5.38;83.99;100953.22;5065542;28;46111;-70
2022/04/09 02:23:37;;;;;;;;;7.00;7.00;;;;;5.32;83.78;100929.41;5085652;27;45367;-70
2022/04/09 02:26:03;;;;;;;;;5.67;5.67;;;;;5.44;83.52;100947.38;5078965;27;45429;-70
2022/04/09 02:28:29;;;;;;;;;8.00;6.33;;;;;5.48;82.95;100942.59;5083836;27;46544;-70
2022/04/09 02:30:54;;;;;;;;;7.00;7.00;;;;;5.52;82.79;100945.97;5065131;28;45413;-70
2022/04/09 02:33:20;;;;;;;;;6.00;6.00;;;;;5.54;82.80;100949.41;5074855;28;45485;-67
2022/04/09 02:35:45;;;;;;;;;10.33;6.00;;;;;5.55;83.10;100945.75;5063769;28;45486;-70
2022/04/09 02:38:11;;;;;;;;;6.00;6.00;;;;;5.49;82.64;100949.72;5066258;28;45515;-70
2022/04/09 02:40:37;;;;;;;;;14.00;10.00;;;;;5.42;82.39;100960.09;5061624;28;45785;-68
2022/04/09 02:43:02;;;;;;;;;6.25;6.25;;;;;5.17;82.07;100970.03;5078573;28;45316;-68
2022/04/09 02:45:28;;;;;;;;;3.00;3.00;;;;;5.14;82.24;100987.28;5062622;27;45339;-68
2022/04/09 02:47:53;;;;;;;;;7.67;7.67;;;;;5.22;82.48;100987.59;5067769;28;45321;-68
2022/04/09 02:50:22;;;;;;;;;9.00;6.00;;;;;5.31;82.72;100988.78;5062949;28;45306;-68
2022/04/09 02:52:47;;;;;;;;;7.67;7.67;;;;;5.35;82.99;100987.59;5070114;28;45518;-69
2022/04/09 02:55:12;;;;;;;;;7.00;7.00;;;;;5.37;83.80;100999.97;5063321;28;45317;-68
2022/04/09 02:57:39;;;;;;;;;14.67;10.33;;;;;5.42;83.93;100989.72;5069434;28;45533;-68
2022/04/09 03:00:11;;;;;;;;;9.00;6.00;;;;;5.47;83.63;100990.28;5066149;28;45277;-69
2022/04/09 03:02:37;;;;;;;;;9.67;9.00;;;;;5.47;83.72;100995.66;5065512;28;45373;-68
2022/04/09 03:05:04;;;;;;;;;12.33;9.67;;;;;5.49;83.46;100993.69;5073796;28;45405;-68
2022/04/09 03:07:29;;;;;;;;;4.33;1.33;;;;;5.46;84.09;100988.56;5067357;28;45701;-68
2022/04/09 03:09:54;;;;;;;;;9.67;6.67;;;;;5.30;83.26;101000.53;5067857;28;45315;-68
2022/04/09 03:12:20;;;;;;;;;14.00;11.00;;;;;5.31;84.12;101021.97;5069140;28;45383;-68
2022/04/09 03:14:45;;;;;;;;;11.00;11.00;;;;;5.27;84.22;101031.22;5075357;28;45402;-68
2022/04/09 03:17:11;;;;;;;;;11.00;11.00;;;;;5.33;84.55;101024.56;5066942;28;46170;-68
2022/04/09 03:19:37;;;;;;;;;10.00;10.00;;;;;5.42;84.36;101024.75;5063780;28;45476;-69
2022/04/09 03:22:02;;;;;;;;;15.33;9.67;;;;;5.39;92.03;101019.59;5071701;28;45358;-68
2022/04/09 03:24:29;;;;;;;;;16.33;11.00;;;;;5.29;100.00;101018.53;5063066;28;45450;-68
2022/04/09 03:26:54;;;;;;;;;13.75;10.00;;;;;5.22;100.00;101022.63;5064916;28;45414;-68
2022/04/09 03:29:20;;;;;;;;;17.00;15.50;;;;;5.27;100.00;101031.22;5087665;27;45366;-68
2022/04/09 03:31:46;;;;;;;;;15.00;14.25;;;;;9.92;100.00;101023.56;5078978;28;45405;-69
2022/04/09 03:34:11;;;;;;;;;24.33;16.00;;;;;12.10;100.00;101017.41;5075223;28;45370;-68
2022/04/09 03:36:38;;;;;;;;;19.00;19.00;;;;;11.82;100.00;101019.25;5064744;28;45504;-68
2022/04/09 03:39:04;;;;;;;;;47.25;36.25;;;;;15.14;100.00;101020.66;5063489;28;45470;-68
2022/04/09 03:41:29;;;;;;;;;17.00;14.67;;;;;7.55;100.00;101049.16;5064445;28;45445;-68
2022/04/09 03:43:55;;;;;;;;;22.50;17.75;;;;;6.77;100.00;101056.22;5065264;28;45508;-68
2022/04/09 03:46:20;;;;;;;;;19.50;17.50;;;;;6.36;100.00;101057.47;5069810;28;47160;-69
2022/04/09 03:48:45;;;;;;;;;15.75;15.00;;;;;6.12;100.00;101067.41;5067437;28;45459;-68
2022/04/09 03:51:12;;;;;;;;;14.00;14.00;;;;;6.03;100.00;101068.91;5061377;28;45368;-68
2022/04/09 03:53:38;;;;;;;;;19.00;15.00;;;;;6.01;100.00;101054.66;5064721;28;45251;-68
2022/04/09 03:56:04;;;;;;;;;16.00;13.50;;;;;6.02;100.00;101056.41;5061683;28;45433;-70
2022/04/09 03:58:30;;;;;;;;;15.75;15.50;;;;;5.92;100.00;101059.91;5073740;28;45364;-69
2022/04/09 04:00:55;;;;;;;;;17.75;14.75;;;;;5.80;100.00;101066.97;5064403;28;45454;-69
2022/04/09 04:03:21;;;;;;;;;22.00;20.00;;;;;5.61;100.00;101055.81;5076193;28;45728;-69
2022/04/09 04:05:47;;;;;;;;;8.33;8.00;;;;;5.71;100.00;101075.72;5073073;28;47010;-69
2022/04/09 04:08:13;;;;;;;;;15.25;15.25;;;;;5.73;100.00;101071.97;5076990;28;45397;-69
2022/04/09 04:10:39;;;;;;;;;18.50;15.25;;;;;5.68;100.00;101062.47;5085258;28;45393;-70
2022/04/09 04:13:06;;;;;;;;;14.00;13.50;;;;;5.58;98.64;101072.19;5077374;28;45443;-69
2022/04/09 04:15:32;;;;;;;;;19.50;16.25;;;;;5.60;97.35;101067.56;5085115;28;45412;-70
2022/04/09 04:17:57;;;;;;;;;15.67;14.00;;;;;5.60;95.46;101062.16;5083074;28;45421;-69
2022/04/09 04:20:26;;;;;;;;;19.67;15.33;;;;;5.72;93.27;101063.97;5066503;28;45362;-70
2022/04/09 04:22:52;;;;;;;;;12.67;12.67;;;;;5.80;91.06;101054.38;5079175;28;45541;-69
2022/04/09 04:25:18;;;;;;;;;18.00;18.00;;;;;5.86;88.93;101051.22;5065018;27;46831;-69
2022/04/09 04:27:49;;;;;;;;;13.67;11.33;;;;;5.72;85.59;101058.59;5073709;27;45486;-69
2022/04/09 04:30:15;;;;;;;;;19.00;14.25;;;;;5.66;85.14;101070.66;5087698;27;45218;-69
2022/04/09 04:32:41;;;;;;;;;21.00;16.00;;;;;5.67;84.40;101067.00;5083667;27;45503;-69
2022/04/09 04:35:08;;;;;;;;;12.50;12.50;;;;;5.75;84.01;101064.63;5068654;28;46283;-69
2022/04/09 04:37:54;;;;;;;;;14.00;14.00;;;;;5.84;83.82;101071.19;5079846;28;45358;-67
2022/04/09 04:40:19;;;;;;;;;16.75;15.25;;;;;5.79;83.42;101073.34;5081013;28;45424;-69
2022/04/09 04:42:45;;;;;;;;;20.00;16.00;;;;;5.76;82.79;101073.59;5081491;28;45548;-69
2022/04/09 04:45:11;;;;;;;;;15.00;13.75;;;;;5.80;82.81;101075.06;5069477;27;47201;-69
2022/04/09 04:47:48;;;;;;;;;19.50;17.00;;;;;5.80;82.93;101072.38;5073237;28;45402;-69
2022/04/09 04:50:15;;;;;;;;;18.50;18.25;;;;;5.74;82.41;101070.13;5083591;28;45347;-69
2022/04/09 04:52:40;;;;;;;;;19.50;17.50;;;;;5.71;82.52;101070.34;5078377;28;45350;-69
2022/04/09 04:55:07;;;;;;;;;18.25;17.75;;;;;5.62;82.64;101079.09;5063425;28;47053;-69
2022/04/09 04:57:53;;;;;;;;;23.75;20.75;;;;;5.54;82.68;101078.78;5074081;28;45840;-69
2022/04/09 05:00:22;;;;;;;;;22.25;20.50;;;;;5.59;82.69;101084.69;5066057;28;45489;-69
2022/04/09 05:02:48;;;;;;;;;27.50;23.25;;;;;5.56;83.05;101080.38;5067309;28;45249;-70
2022/04/09 05:05:13;;;;;;;;;23.50;16.50;;;;;5.57;83.76;101089.31;5068104;28;45566;-69
2022/04/09 05:07:52;;;;;;;;;22.00;19.00;;;;;5.67;83.95;101103.88;5069890;28;45920;-69
2022/04/09 05:10:20;;;;;;;;;12.75;11.00;;;;;5.70;84.00;101099.13;5073418;28;45468;-69
2022/04/09 05:12:46;;;;;;;;;21.50;18.75;;;;;5.63;83.84;101086.19;5072973;28;45575;-69
2022/04/09 05:15:13;;;;;;;;;25.75;22.25;;;;;5.67;83.30;101098.50;5067277;28;45482;-69
2022/04/09 05:17:39;;;;;;;;;13.75;13.00;;;;;5.60;83.33;101091.81;5070555;28;45227;-69
2022/04/09 05:20:06;;;;;;;;;32.75;26.25;;;;;5.63;83.30;101096.97;5066677;28;45283;-69
2022/04/09 05:22:32;;;;;;;;;27.25;23.75;;;;;5.73;83.21;101089.97;5070945;28;45340;-69
2022/04/09 05:24:58;;;;;;;;;21.50;21.50;;;;;5.80;83.53;101094.81;5069281;28;45458;-69
2022/04/09 05:27:24;;;;;;;;;29.75;21.25;;;;;5.87;83.60;101095.22;5068802;27;45441;-70
2022/04/09 05:29:50;;;;;;;;;28.25;23.50;;;;;5.86;82.58;101101.59;5090805;27;45340;-69
2022/04/09 05:32:16;;;;;;;;;22.75;22.75;;;;;5.90;83.54;101110.38;5078259;28;45567;-69
2022/04/09 05:34:42;;;;;;;;;27.25;26.75;;;;;5.90;83.14;101108.53;5071107;27;46225;-69
2022/04/09 05:37:07;;;;;;;;;34.00;26.50;;;;;5.92;82.36;101108.44;5066096;28;45341;-71
2022/04/09 05:39:33;;;;;;;;;26.75;24.50;;;;;5.89;82.13;101114.03;5080311;28;45376;-70
2022/04/09 05:41:59;;;;;;;;;29.00;27.00;;;;;5.86;82.21;101104.28;5079667;28;45358;-70
2022/04/09 05:44:24;;;;;;;;;26.75;25.75;;;;;5.91;82.79;101122.88;5076305;28;47149;-70
2022/04/09 05:46:49;;;;;;;;;26.00;26.00;;;;;5.94;82.74;101128.03;5066725;28;45164;-71
2022/04/09 05:49:15;;;;;;;;;30.00;28.25;;;;;5.90;83.03;101132.81;5065995;28;45210;-70
2022/04/09 05:51:40;;;;;;;;;32.50;27.75;;;;;5.82;83.05;101129.75;5073189;28;45424;-69
2022/04/09 05:54:06;;;;;;;;;30.00;23.75;;;;;5.89;83.06;101139.16;5063659;28;46207;-69
2022/04/09 05:56:31;;;;;;;;;28.50;26.50;;;;;5.89;82.80;101139.16;5071986;28;45211;-69
2022/04/09 05:58:57;;;;;;;;;32.25;32.00;;;;;5.91;83.68;101145.31;5068926;28;45230;-69
2022/04/09 06:01:22;;;;;;;;;24.75;23.75;;;;;5.97;83.48;101147.59;5062950;27;45394;-69
2022/04/09 06:03:48;;;;;;;;;28.75;27.50;;;;;5.92;83.50;101136.22;5067114;28;46460;-69
2022/04/09 06:06:13;;;;;;;;;29.00;28.00;;;;;5.90;83.32;101138.19;5073592;28;45448;-70
2022/04/09 06:08:38;;;;;;;;;31.75;25.75;;;;;5.85;83.57;101138.47;5070789;28;45335;-69
2022/04/09 06:11:05;;;;;;;;;24.25;23.25;;;;;5.96;83.82;101153.94;5070931;28;45307;-69
2022/04/09 06:13:31;;;;;;;;;26.50;23.50;;;;;5.98;83.87;101141.22;5074885;27;47225;-69
2022/04/09 06:15:56;;;;;;;;;17.75;17.75;;;;;6.08;83.74;101146.78;5065155;28;45322;-71
2022/04/09 06:18:22;;;;;;;;;26.25;26.25;;;;;6.13;83.35;101144.66;5067463;28;45461;-69
2022/04/09 06:20:47;;;;;;;;;27.00;24.75;;;;;6.11;82.51;101139.38;5074050;28;45689;-70
2022/04/09 06:23:12;;;;;;;;;30.00;25.75;;;;;6.12;82.75;101154.56;5067095;28;45558;-69
2022/04/09 06:25:38;;;;;;;;;30.25;25.00;;;;;6.14;82.44;101163.41;5090837;27;45623;-69
2022/04/09 06:28:03;;;;;;;;;35.75;30.50;;;;;6.15;83.15;101156.19;5068035;27;45598;-69
2022/04/09 06:30:29;;;;;;;;;26.50;20.50;;;;;6.18;82.85;101170.31;5074234;28;45449;-70
2022/04/09 06:32:54;;;;;;;;;28.50;22.50;;;;;6.17;82.46;101184.78;5063385;28;46303;-69
2022/04/09 06:35:21;;;;;;;;;25.50;24.00;;;;;6.25;82.87;101174.31;5075478;28;45306;-69
2022/04/09 06:37:46;;;;;;;;;27.50;23.25;;;;;6.21;82.58;101172.78;5064056;28;46322;-69
2022/04/09 06:40:12;;;;;;;;;29.50;24.00;;;;;6.18;82.52;101182.94;5072799;28;45421;-69
2022/04/09 06:42:39;;;;;;;;;24.25;22.75;;;;;6.18;82.60;101191.03;5068133;28;45618;-69
2022/04/09 06:45:05;;;;;;;;;30.50;28.50;;;;;6.13;82.80;101187.81;5062608;28;45574;-69
2022/04/09 06:47:30;;;;;;;;;34.75;27.25;;;;;6.20;83.07;101191.81;5064003;28;45457;-69
2022/04/09 06:49:57;;;;;;;;;28.50;26.00;;;;;6.19;82.75;101195.47;5061642;28;45372;-69
2022/04/09 06:52:23;;;;;;;;;24.50;23.25;;;;;6.19;81.89;101190.94;5066870;28;47274;-69
2022/04/09 06:54:48;;;;;;;;;21.25;20.75;;;;;6.25;81.75;101198.59;5064348;28;45548;-69
2022/04/09 06:57:13;;;;;;;;;27.00;21.00;;;;;6.31;81.66;101196.41;5063949;28;45422;-69
2022/04/09 06:59:39;;;;;;;;;27.50;24.75;;;;;6.32;82.07;101196.31;5070243;28;45363;-70
2022/04/09 07:02:04;;;;;;;;;25.75;22.00;;;;;6.39;81.96;101196.72;5063759;28;46708;-70
2022/04/09 07:04:29;;;;;;;;;27.25;23.50;;;;;6.31;82.39;101216.16;5074685;28;45302;-70
2022/04/09 07:06:55;;;;;;;;;26.75;26.50;;;;;6.31;82.93;101215.31;5066284;28;45412;-70
2022/04/09 07:09:20;;;;;;;;;30.00;26.50;;;;;6.32;82.42;101196.31;5068204;28;45550;-70
2022/04/09 07:11:45;;;;;;;;;25.75;24.00;;;;;6.37;82.28;101222.94;5064551;28;46641;-69
2022/04/09 07:14:11;;;;;;;;;25.75;24.50;;;;;6.44;82.21;101216.13;5082351;27;45370;-70
2022/04/09 07:16:36;;;;;;;;;29.25;24.25;;;;;6.57;82.01;101219.69;5064882;28;45323;-69
2022/04/09 07:19:01;;;;;;;;;28.25;25.50;;;;;6.54;81.31;101217.22;5071701;28;45604;-70
2022/04/09 07:21:28;;;;;;;;;28.00;25.25;;;;;6.46;81.50;101230.41;5080890;28;45761;-70
2022/04/09 07:23:53;;;;;;;;;21.50;21.50;;;;;6.32;81.04;101204.41;5072449;28;45343;-70
2022/04/09 07:26:20;;;;;;;;;27.00;21.00;;;;;6.47;81.43;101234.81;5077960;28;45771;-70
2022/04/09 07:28:46;;;;;;;;;25.25;21.75;;;;;6.55;81.67;101235.13;5088004;27;45465;-69
2022/04/09 07:31:11;;;;;;;;;22.50;20.25;;;;;6.48;81.10;101223.94;5061784;28;46070;-69
2022/04/09 07:33:37;;;;;;;;;16.50;16.50;;;;;6.45;81.15;101228.66;5066484;28;45338;-70
2022/04/09 07:36:04;;;;;;;;;24.75;22.75;;;;;6.59;81.25;101239.31;5066139;28;45326;-69
2022/04/09 07:38:29;;;;;;;;;21.00;19.25;;;;;6.59;80.78;101232.09;5070111;27;45322;-70
2022/04/09 07:40:54;;;;;;;;;28.75;20.75;;;;;6.66;81.14;101240.59;5064186;28;47905;-69
2022/04/09 07:43:20;;;;;;;;;24.75;24.25;;;;;6.71;80.60;101241.16;5070400;28;45337;-69
2022/04/09 07:45:46;;;;;;;;;22.25;20.25;;;;;6.73;81.33;101241.88;5064562;28;45467;-69
2022/04/09 07:48:12;;;;;;;;;30.00;22.00;;;;;6.80;81.18;101247.69;5067333;28;45405;-69
2022/04/09 07:50:38;;;;;;;;;23.00;20.25;;;;;6.81;80.86;101241.31;5066463;28;45500;-69
2022/04/09 07:53:03;;;;;;;;;25.50;21.75;;;;;6.97;80.86;101250.91;5072606;28;45374;-68
2022/04/09 07:55:28;;;;;;;;;21.25;18.50;;;;;7.10;80.28;101252.69;5065552;28;45627;-68
2022/04/09 07:57:54;;;;;;;;;22.25;20.00;;;;;7.19;80.46;101260.13;5077854;28;45608;-70
2022/04/09 08:00:21;;;;;;;;;18.00;13.67;;;;;7.25;80.10;101270.47;5071658;28;48212;-69
2022/04/09 08:02:47;;;;;;;;;33.25;29.75;;;;;7.33;79.75;101257.25;5083463;27;45786;-68
2022/04/09 08:05:13;;;;;;;;;23.25;15.50;;;;;7.56;79.88;101267.19;5077213;28;45457;-68
2022/04/09 08:07:39;;;;;;;;;21.00;19.25;;;;;7.57;78.77;101259.94;5074994;28;45328;-69
2022/04/09 08:10:06;;;;;;;;;18.67;17.67;;;;;7.83;79.15;101272.31;5077518;28;47872;-69
2022/04/09 08:12:32;;;;;;;;;15.00;15.00;;;;;7.89;77.68;101260.19;5070895;28;45410;-71
2022/04/09 08:14:57;;;;;;;;;17.33;16.00;;;;;8.08;77.49;101271.28;5074559;28;45399;-69
2022/04/09 08:17:23;;;;;;;;;21.00;20.25;;;;;8.17;76.08;101267.88;5074743;28;45343;-69
2022/04/09 08:19:48;;;;;;;;;28.00;24.00;;;;;8.11;76.58;101269.19;5073327;28;47423;-69
2022/04/09 08:22:14;;;;;;;;;20.75;19.00;;;;;8.28;76.91;101262.47;5070588;28;45422;-69
2022/04/09 08:24:41;;;;;;;;;13.67;13.33;;;;;8.27;72.90;101270.69;5072518;28;45267;-69
2022/04/09 08:27:08;;;;;;;;;13.33;13.33;;;;;8.35;75.38;101269.16;5067898;28;45561;-69
2022/04/09 08:29:34;;;;;;;;;17.67;13.00;;;;;8.36;74.84;101275.44;5090160;27;45686;-68
2022/04/09 08:32:01;;;;;;;;;13.00;12.00;;;;;8.36;74.39;101279.00;5078840;27;45300;-69
2022/04/09 08:34:29;;;;;;;;;16.00;12.67;;;;;8.09;75.07;101281.13;5065055;28;45494;-69
2022/04/09 08:36:55;;;;;;;;;14.67;13.00;;;;;8.20;74.55;101291.97;5067034;28;45464;-69
2022/04/09 08:39:21;;;;;;;;;14.67;14.67;;;;;8.16;74.43;101295.91;5065196;28;45448;-69
2022/04/09 08:41:47;;;;;;;;;14.00;13.00;;;;;8.10;74.55;101307.22;5073533;28;45526;-69
2022/04/09 08:44:12;;;;;;;;;18.00;15.00;;;;;8.01;73.35;101305.22;5078708;28;45390;-70
2022/04/09 08:46:41;;;;;;;;;16.33;13.67;;;;;7.83;74.24;101304.78;5074791;27;45564;-69
2022/04/09 08:49:08;;;;;;;;;19.00;15.67;;;;;7.62;74.69;101318.09;5067580;28;45245;-69
2022/04/09 08:51:33;;;;;;;;;16.67;14.33;;;;;7.56;74.16;101323.97;5081727;27;45491;-69
2022/04/09 08:54:02;;;;;;;;;13.67;13.67;;;;;7.64;74.67;101320.69;5068989;28;45460;-70
2022/04/09 08:56:29;;;;;;;;;21.00;17.67;;;;;7.75;74.94;101318.88;5080729;28;45330;-70
2022/04/09 08:58:58;;;;;;;;;12.67;12.33;;;;;7.88;74.88;101331.50;5070175;28;46626;-69
2022/04/09 09:01:23;;;;;;;;;16.00;13.00;;;;;7.79;73.37;101331.22;5062007;28;45937;-68
2022/04/09 09:03:49;;;;;;;;;9.00;8.00;;;;;7.85;73.11;101326.31;5072754;28;45449;-69
2022/04/09 09:06:27;;;;;;;;;14.33;12.00;;;;;7.81;73.92;101334.69;5068076;28;45519;-69
2022/04/09 09:08:53;;;;;;;;;13.00;13.00;;;;;7.55;74.64;101337.59;5072367;28;45537;-70
2022/04/09 09:11:19;;;;;;;;;14.00;11.00;;;;;7.69;75.16;101342.84;5064061;28;45374;-70
2022/04/09 09:13:56;;;;;;;;;13.33;13.00;;;;;7.77;75.20;101338.56;5075402;28;45452;-69
2022/04/09 09:16:31;;;;;;;;;12.33;12.00;;;;;7.55;74.21;101324.06;5078011;27;45509;-69
2022/04/09 09:18:59;;;;;;;;;13.33;12.00;;;;;7.66;74.32;101334.97;5069143;28;47071;-70
2022/04/09 09:21:27;;;;;;;;;8.00;4.67;;;;;7.75;73.64;101329.72;5076432;28;45414;-68
2022/04/09 09:24:12;;;;;;;;;12.67;11.33;;;;;7.87;72.97;101335.19;5072028;28;45523;-70
2022/04/09 09:26:38;;;;;;;;;12.00;12.00;;;;;8.09;72.83;101348.78;5065264;28;45266;-69
2022/04/09 09:29:04;;;;;;;;;12.00;12.00;;;;;8.14;72.99;101338.47;5066689;27;45482;-70
2022/04/09 09:31:39;;;;;;;;;11.67;10.00;;;;;8.13;73.60;101350.28;5076082;28;45250;-68
2022/04/09 09:34:13;;;;;;;;;12.00;8.67;;;;;8.14;71.96;101352.88;5066500;28;45346;-69
2022/04/09 09:36:41;;;;;;;;;8.67;8.00;;;;;8.19;71.47;101361.47;5074779;28;45453;-71
2022/04/09 09:39:08;;;;;;;;;11.33;11.33;;;;;8.15;72.76;101365.41;5064147;28;45659;-70
2022/04/09 09:41:35;;;;;;;;;10.00;9.00;;;;;8.38;72.95;101371.81;5067229;28;45471;-70
2022/04/09 09:44:04;;;;;;;;;8.00;6.00;;;;;8.42;71.08;101367.00;5071047;28;45404;-69
2022/04/09 09:46:30;;;;;;;;;10.67;10.67;;;;;8.45;70.53;101380.31;5062829;28;45611;-70
2022/04/09 09:48:55;;;;;;;;;11.00;8.67;;;;;8.74;70.85;101372.59;5064344;28;47215;-71
2022/04/09 09:51:25;;;;;;;;;11.33;11.33;;;;;8.83;70.74;101388.13;5069992;28;45524;-69
2022/04/09 09:54:04;;;;;;;;;14.00;7.00;;;;;8.54;69.76;101388.59;5064954;28;45452;-69
2022/04/09 09:56:35;;;;;;;;;15.33;14.00;;;;;8.53;70.04;101391.41;5064733;28;45473;-69
2022/04/09 09:59:03;;;;;;;;;11.67;9.67;;;;;8.53;70.83;101394.13;5071231;28;46306;-70
2022/04/09 10:01:29;;;;;;;;;9.00;8.00;;;;;8.53;69.65;101392.28;5063515;28;45405;-71
2022/04/09 10:03:54;;;;;;;;;11.67;9.33;;;;;8.33;69.56;101403.75;5072261;28;45851;-71
2022/04/09 10:06:22;;;;;;;;;8.67;8.00;;;;;8.04;70.83;101411.38;5067848;28;45160;-70
2022/04/09 10:08:48;;;;;;;;;8.33;6.00;;;;;7.89;72.30;101419.81;5075032;28;46133;-70
2022/04/09 10:11:17;;;;;;;;;8.00;8.00;;;;;7.72;71.71;101421.06;5082308;28;45472;-70
2022/04/09 10:13:44;;;;;;;;;10.67;8.33;;;;;7.73;72.74;101429.06;5075978;28;45353;-69
2022/04/09 10:16:12;;;;;;;;;12.67;9.00;;;;;7.60;72.09;101439.03;5082895;28;45499;-70
2022/04/09 10:18:39;;;;;;;;;13.00;11.00;;;;;7.24;71.77;101425.47;5069782;28;46256;-70
2022/04/09 10:21:05;;;;;;;;;12.67;11.00;;;;;7.39;73.77;101424.38;5064526;28;45392;-69
2022/04/09 10:23:33;;;;;;;;;13.67;11.00;;;;;7.66;72.43;101433.19;5063299;28;45360;-70
2022/04/09 10:26:01;;;;;;;;;13.33;13.33;;;;;7.86;71.88;101434.41;5076013;28;45515;-71
2022/04/09 10:28:36;;;;;;;;;18.00;13.67;;;;;7.96;71.11;101443.59;5076715;27;47120;-71
2022/04/09 10:31:01;;;;;;;;;13.00;13.00;;;;;7.97;71.23;101444.41;5075581;28;45258;-70
2022/04/09 10:33:28;;;;;;;;;11.00;11.00;;;;;8.05;70.27;101451.00;5062633;28;45315;-69
2022/04/09 10:36:00;;;;;;;;;11.00;11.00;;;;;8.10;69.74;101454.25;5075986;28;45636;-71
2022/04/09 10:38:26;;;;;;;;;13.00;12.00;;;;;8.13;69.49;101450.41;5062642;28;45444;-70
2022/04/09 10:40:57;;;;;;;;;13.33;12.67;;;;;8.36;68.77;101456.81;5075303;28;45369;-71
2022/04/09 10:43:22;;;;;;;;;17.00;13.00;;;;;8.51;68.06;101459.22;5065031;27;45624;-71
2022/04/09 10:46:11;;;;;;;;;12.33;12.33;;;;;8.62;66.98;101457.56;5068236;28;45642;-71
2022/04/09 10:48:39;;;;;;;;;15.67;15.67;;;;;8.85;66.43;101451.19;5061775;28;47395;-70
2022/04/09 10:51:11;;;;;;;;;11.33;11.00;;;;;8.92;64.68;101465.97;5079402;28;45977;-70
2022/04/09 10:53:58;;;;;;;;;10.00;7.67;;;;;8.89;62.61;101464.38;5063780;28;45362;-71
2022/04/09 10:56:29;;;;;;;;;12.67;12.67;;;;;8.90;64.48;101462.53;5061660;28;45476;-72
2022/04/09 10:59:13;;;;;;;;;10.00;9.00;;;;;8.84;62.82;101465.75;5061938;28;47252;-71
2022/04/09 11:01:50;;;;;;;;;17.67;15.33;;;;;9.24;62.27;101452.59;5064143;28;45533;-70
2022/04/09 11:04:43;;;;;;;;;9.67;9.00;;;;;9.46;62.65;101468.00;5064713;28;45672;-70
2022/04/09 11:07:14;;;;;;;;;9.67;9.67;;;;;9.54;63.47;101454.69;5059538;27;45460;-70
2022/04/09 11:09:53;;;;;;;;;10.00;9.00;;;;;9.67;62.69;101472.53;5067484;27;45486;-70
2022/04/09 11:12:29;;;;;;;;;15.33;13.33;;;;;9.85;64.15;101469.34;5074870;28;45509;-70
2022/04/09 11:14:55;;;;;;;;;12.33;12.33;;;;;9.83;63.65;101485.72;5081987;28;45520;-70
2022/04/09 11:17:28;;;;;;;;;15.00;14.00;;;;;9.69;63.28;101470.59;5075572;27;45416;-70
2022/04/09 11:19:54;;;;;;;;;16.00;12.67;;;;;9.28;63.28;101471.19;5066146;27;46487;-70
2022/04/09 11:22:20;;;;;;;;;13.00;13.00;;;;;9.24;64.22;101480.56;5070216;28;45438;-70
2022/04/09 11:24:46;;;;;;;;;10.67;10.67;;;;;9.56;63.04;101475.28;5075345;28;45417;-70